sensor_id;sensor_type;location;lat;lon;timestamp;P1;durP1;ratioP1;P2;durP2;ratioP2
8419;SDS011;4247;48.550;8.822;2022-07-23T00:01:55;2.47;;;1.57;;
8419;SDS011;4247;48.550;8.822;2022-07-23T00:04:23;2.20;;;2.00;;
8419;SDS011;4247;48.550;8.822;2022-07-23T00:06:50;2.47;;;2.10;;
8419;SDS011;4247;48.550;8.822;2022-07-23T00:09:17;1.80;;;1.70;;
8419;SDS011;4247;48.550;8.822;2022-07-23T00:11:44;2.07;;;1.97;;
8419;SDS011;4247;48.550;8.822;2022-07-23T00:14:12;1.80;;;1.70;;
8419;SDS011;4247;48.550;8.822;2022-07-23T00:16:39;3.87;;;1.57;;
8419;SDS011;4247;48.550;8.822;2022-07-23T00:19:06;3.07;;;1.50;;
8419;SDS011;4247;48.550;8.822;2022-07-23T00:21:34;2.17;;;1.97;;
8419;SDS011;4247;48.550;8.822;2022-07-23T00:24:01;2.70;;;1.60;;
8419;SDS011;4247;48.550;8.822;2022-07-23T00:26:28;2.67;;;1.93;;
8419;SDS011;4247;48.550;8.822;2022-07-23T00:28:55;2.20;;;1.87;;
8419;SDS011;4247;48.550;8.822;2022-07-23T00:31:21;2.97;;;1.60;;
8419;SDS011;4247;48.550;8.822;2022-07-23T00:33:48;2.30;;;1.77;;
8419;SDS011;4247;48.550;8.822;2022-07-23T00:36:15;1.33;;;1.23;;
8419;SDS011;4247;48.550;8.822;2022-07-23T00:38:44;1.57;;;1.47;;
8419;SDS011;4247;48.550;8.822;2022-07-23T00:41:10;2.00;;;1.90;;
8419;SDS011;4247;48.550;8.822;2022-07-23T00:43:37;1.70;;;1.60;;
8419;SDS011;4247;48.550;8.822;2022-07-23T00:46:04;2.17;;;1.80;;
8419;SDS011;4247;48.550;8.822;2022-07-23T00:48:31;2.03;;;1.90;;
8419;SDS011;4247;48.550;8.822;2022-07-23T00:50:58;2.70;;;1.43;;
8419;SDS011;4247;48.550;8.822;2022-07-23T00:53:25;2.20;;;1.87;;
8419;SDS011;4247;48.550;8.822;2022-07-23T00:55:56;4.47;;;1.63;;
8419;SDS011;4247;48.550;8.822;2022-07-23T00:58:24;3.10;;;1.70;;
8419;SDS011;4247;48.550;8.822;2022-07-23T01:00:51;1.53;;;1.40;;
8419;SDS011;4247;48.550;8.822;2022-07-23T01:03:18;4.03;;;2.00;;
8419;SDS011;4247;48.550;8.822;2022-07-23T01:05:45;1.70;;;1.60;;
8419;SDS011;4247;48.550;8.822;2022-07-23T01:08:13;1.50;;;1.40;;
8419;SDS011;4247;48.550;8.822;2022-07-23T01:10:40;1.87;;;1.67;;
8419;SDS011;4247;48.550;8.822;2022-07-23T01:13:09;3.27;;;1.67;;
8419;SDS011;4247;48.550;8.822;2022-07-23T01:15:37;1.97;;;1.77;;
8419;SDS011;4247;48.550;8.822;2022-07-23T01:18:05;4.97;;;1.80;;
8419;SDS011;4247;48.550;8.822;2022-07-23T01:20:33;3.20;;;2.00;;
8419;SDS011;4247;48.550;8.822;2022-07-23T01:23:02;2.10;;;1.90;;
8419;SDS011;4247;48.550;8.822;2022-07-23T01:25:29;2.23;;;2.03;;
8419;SDS011;4247;48.550;8.822;2022-07-23T01:27:56;3.33;;;1.70;;
8419;SDS011;4247;48.550;8.822;2022-07-23T01:30:24;4.00;;;2.23;;
8419;SDS011;4247;48.550;8.822;2022-07-23T01:32:51;3.17;;;2.03;;
8419;SDS011;4247;48.550;8.822;2022-07-23T01:35:18;3.90;;;1.83;;
8419;SDS011;4247;48.550;8.822;2022-07-23T01:37:44;3.70;;;2.13;;
8419;SDS011;4247;48.550;8.822;2022-07-23T01:40:13;1.97;;;1.77;;
8419;SDS011;4247;48.550;8.822;2022-07-23T01:42:40;1.93;;;1.53;;
8419;SDS011;4247;48.550;8.822;2022-07-23T01:45:07;2.10;;;1.50;;
8419;SDS011;4247;48.550;8.822;2022-07-23T01:47:34;2.90;;;1.90;;
8419;SDS011;4247;48.550;8.822;2022-07-23T01:50:01;3.73;;;1.83;;
8419;SDS011;4247;48.550;8.822;2022-07-23T01:52:28;3.67;;;1.70;;
8419;SDS011;4247;48.550;8.822;2022-07-23T01:54:55;2.00;;;1.90;;
8419;SDS011;4247;48.550;8.822;2022-07-23T01:57:24;5.20;;;1.87;;
8419;SDS011;4247;48.550;8.822;2022-07-23T01:59:50;2.20;;;2.00;;
8419;SDS011;4247;48.550;8.822;2022-07-23T02:02:19;2.80;;;1.50;;
8419;SDS011;4247;48.550;8.822;2022-07-23T02:04:46;2.57;;;2.37;;
8419;SDS011;4247;48.550;8.822;2022-07-23T02:07:13;2.13;;;2.03;;
8419;SDS011;4247;48.550;8.822;2022-07-23T02:09:40;2.70;;;1.80;;
8419;SDS011;4247;48.550;8.822;2022-07-23T02:12:07;2.83;;;1.87;;
8419;SDS011;4247;48.550;8.822;2022-07-23T02:14:35;1.73;;;1.63;;
8419;SDS011;4247;48.550;8.822;2022-07-23T02:17:02;2.13;;;2.03;;
8419;SDS011;4247;48.550;8.822;2022-07-23T02:19:29;4.37;;;2.30;;
8419;SDS011;4247;48.550;8.822;2022-07-23T02:21:56;1.90;;;1.77;;
8419;SDS011;4247;48.550;8.822;2022-07-23T02:24:23;1.90;;;1.80;;
8419;SDS011;4247;48.550;8.822;2022-07-23T02:26:50;1.60;;;1.50;;
8419;SDS011;4247;48.550;8.822;2022-07-23T02:29:17;2.00;;;1.87;;
8419;SDS011;4247;48.550;8.822;2022-07-23T02:31:45;4.20;;;2.30;;
8419;SDS011;4247;48.550;8.822;2022-07-23T02:34:12;2.93;;;2.33;;
8419;SDS011;4247;48.550;8.822;2022-07-23T02:36:40;3.30;;;2.07;;
8419;SDS011;4247;48.550;8.822;2022-07-23T02:39:07;3.53;;;1.77;;
8419;SDS011;4247;48.550;8.822;2022-07-23T02:41:34;2.93;;;1.97;;
8419;SDS011;4247;48.550;8.822;2022-07-23T02:44:01;2.30;;;2.10;;
8419;SDS011;4247;48.550;8.822;2022-07-23T02:46:28;3.67;;;2.30;;
8419;SDS011;4247;48.550;8.822;2022-07-23T02:48:56;2.57;;;2.37;;
8419;SDS011;4247;48.550;8.822;2022-07-23T02:51:23;5.93;;;2.27;;
8419;SDS011;4247;48.550;8.822;2022-07-23T02:53:49;2.50;;;2.33;;
8419;SDS011;4247;48.550;8.822;2022-07-23T02:56:16;2.03;;;1.93;;
8419;SDS011;4247;48.550;8.822;2022-07-23T02:58:45;2.97;;;2.50;;
8419;SDS011;4247;48.550;8.822;2022-07-23T03:01:11;2.07;;;1.97;;
8419;SDS011;4247;48.550;8.822;2022-07-23T03:03:38;3.20;;;1.93;;
8419;SDS011;4247;48.550;8.822;2022-07-23T03:06:07;2.40;;;2.20;;
8419;SDS011;4247;48.550;8.822;2022-07-23T03:08:34;5.47;;;2.60;;
8419;SDS011;4247;48.550;8.822;2022-07-23T03:11:01;3.53;;;2.07;;
8419;SDS011;4247;48.550;8.822;2022-07-23T03:13:28;3.53;;;2.37;;
8419;SDS011;4247;48.550;8.822;2022-07-23T03:15:55;3.27;;;2.67;;
8419;SDS011;4247;48.550;8.822;2022-07-23T03:18:21;3.57;;;2.43;;
8419;SDS011;4247;48.550;8.822;2022-07-23T03:20:50;3.27;;;2.80;;
8419;SDS011;4247;48.550;8.822;2022-07-23T03:23:18;3.03;;;2.77;;
8419;SDS011;4247;48.550;8.822;2022-07-23T03:25:45;2.13;;;2.03;;
8419;SDS011;4247;48.550;8.822;2022-07-23T03:28:13;2.97;;;2.77;;
8419;SDS011;4247;48.550;8.822;2022-07-23T03:30:40;3.20;;;2.30;;
8419;SDS011;4247;48.550;8.822;2022-07-23T03:33:07;3.07;;;2.80;;
8419;SDS011;4247;48.550;8.822;2022-07-23T03:35:34;3.97;;;3.40;;
8419;SDS011;4247;48.550;8.822;2022-07-23T03:38:01;2.90;;;2.70;;
8419;SDS011;4247;48.550;8.822;2022-07-23T03:40:29;5.67;;;3.17;;
8419;SDS011;4247;48.550;8.822;2022-07-23T03:42:57;5.83;;;2.57;;
8419;SDS011;4247;48.550;8.822;2022-07-23T03:45:24;2.67;;;2.47;;
8419;SDS011;4247;48.550;8.822;2022-07-23T03:47:51;5.23;;;2.43;;
8419;SDS011;4247;48.550;8.822;2022-07-23T03:50:18;2.30;;;2.20;;
8419;SDS011;4247;48.550;8.822;2022-07-23T03:52:45;2.80;;;2.60;;
8419;SDS011;4247;48.550;8.822;2022-07-23T03:55:17;3.30;;;2.50;;
8419;SDS011;4247;48.550;8.822;2022-07-23T03:57:45;2.60;;;2.40;;
8419;SDS011;4247;48.550;8.822;2022-07-23T04:00:13;2.67;;;1.87;;
8419;SDS011;4247;48.550;8.822;2022-07-23T04:02:40;3.23;;;2.93;;
8419;SDS011;4247;48.550;8.822;2022-07-23T04:05:07;4.43;;;2.80;;
8419;SDS011;4247;48.550;8.822;2022-07-23T04:07:34;2.57;;;2.40;;
8419;SDS011;4247;48.550;8.822;2022-07-23T04:10:01;4.17;;;3.03;;
8419;SDS011;4247;48.550;8.822;2022-07-23T04:12:28;3.43;;;3.23;;
8419;SDS011;4247;48.550;8.822;2022-07-23T04:14:56;5.27;;;2.83;;
8419;SDS011;4247;48.550;8.822;2022-07-23T04:17:23;3.70;;;2.73;;
8419;SDS011;4247;48.550;8.822;2022-07-23T04:19:50;2.87;;;2.63;;
8419;SDS011;4247;48.550;8.822;2022-07-23T04:22:17;3.07;;;2.67;;
8419;SDS011;4247;48.550;8.822;2022-07-23T04:24:44;3.83;;;2.60;;
8419;SDS011;4247;48.550;8.822;2022-07-23T04:27:11;3.03;;;2.73;;
8419;SDS011;4247;48.550;8.822;2022-07-23T04:29:38;5.63;;;2.77;;
8419;SDS011;4247;48.550;8.822;2022-07-23T04:32:06;3.33;;;3.03;;
8419;SDS011;4247;48.550;8.822;2022-07-23T04:34:33;3.40;;;3.07;;
8419;SDS011;4247;48.550;8.822;2022-07-23T04:37:00;3.33;;;3.10;;
8419;SDS011;4247;48.550;8.822;2022-07-23T04:39:26;4.77;;;2.63;;
8419;SDS011;4247;48.550;8.822;2022-07-23T04:41:53;2.70;;;2.50;;
8419;SDS011;4247;48.550;8.822;2022-07-23T04:44:20;4.83;;;2.73;;
8419;SDS011;4247;48.550;8.822;2022-07-23T04:46:48;2.87;;;2.63;;
8419;SDS011;4247;48.550;8.822;2022-07-23T04:49:16;2.63;;;2.43;;
8419;SDS011;4247;48.550;8.822;2022-07-23T04:51:43;2.53;;;2.40;;
8419;SDS011;4247;48.550;8.822;2022-07-23T04:54:10;3.10;;;2.77;;
8419;SDS011;4247;48.550;8.822;2022-07-23T04:56:37;2.70;;;2.50;;
8419;SDS011;4247;48.550;8.822;2022-07-23T04:59:04;2.93;;;2.60;;
8419;SDS011;4247;48.550;8.822;2022-07-23T05:01:30;4.60;;;3.43;;
8419;SDS011;4247;48.550;8.822;2022-07-23T05:03:57;4.50;;;2.50;;
8419;SDS011;4247;48.550;8.822;2022-07-23T05:06:25;4.30;;;2.90;;
8419;SDS011;4247;48.550;8.822;2022-07-23T05:08:52;3.30;;;2.77;;
8419;SDS011;4247;48.550;8.822;2022-07-23T05:11:20;3.03;;;2.73;;
8419;SDS011;4247;48.550;8.822;2022-07-23T05:13:47;4.90;;;2.80;;
8419;SDS011;4247;48.550;8.822;2022-07-23T05:16:14;4.40;;;2.83;;
8419;SDS011;4247;48.550;8.822;2022-07-23T05:18:40;3.67;;;3.37;;
8419;SDS011;4247;48.550;8.822;2022-07-23T05:21:07;3.57;;;3.27;;
8419;SDS011;4247;48.550;8.822;2022-07-23T05:23:36;5.77;;;3.80;;
8419;SDS011;4247;48.550;8.822;2022-07-23T05:26:03;3.30;;;3.00;;
8419;SDS011;4247;48.550;8.822;2022-07-23T05:28:31;4.60;;;3.60;;
8419;SDS011;4247;48.550;8.822;2022-07-23T05:30:58;3.53;;;3.03;;
8419;SDS011;4247;48.550;8.822;2022-07-23T05:33:24;4.23;;;3.77;;
8419;SDS011;4247;48.550;8.822;2022-07-23T05:35:51;4.03;;;3.73;;
8419;SDS011;4247;48.550;8.822;2022-07-23T05:38:18;4.67;;;4.10;;
8419;SDS011;4247;48.550;8.822;2022-07-23T05:40:46;4.43;;;3.80;;
8419;SDS011;4247;48.550;8.822;2022-07-23T05:43:13;3.87;;;3.57;;
8419;SDS011;4247;48.550;8.822;2022-07-23T05:45:40;3.43;;;3.13;;
8419;SDS011;4247;48.550;8.822;2022-07-23T05:48:07;6.00;;;3.70;;
8419;SDS011;4247;48.550;8.822;2022-07-23T05:50:35;8.57;;;4.67;;
8419;SDS011;4247;48.550;8.822;2022-07-23T05:53:02;5.20;;;3.57;;
8419;SDS011;4247;48.550;8.822;2022-07-23T05:55:29;5.33;;;3.67;;
8419;SDS011;4247;48.550;8.822;2022-07-23T05:57:58;4.57;;;4.17;;
8419;SDS011;4247;48.550;8.822;2022-07-23T06:00:25;7.73;;;4.37;;
8419;SDS011;4247;48.550;8.822;2022-07-23T06:02:54;8.63;;;4.10;;
8419;SDS011;4247;48.550;8.822;2022-07-23T06:05:21;4.50;;;4.13;;
8419;SDS011;4247;48.550;8.822;2022-07-23T06:07:48;5.17;;;4.07;;
8419;SDS011;4247;48.550;8.822;2022-07-23T06:10:15;4.40;;;3.90;;
8419;SDS011;4247;48.550;8.822;2022-07-23T06:12:42;7.33;;;4.23;;
8419;SDS011;4247;48.550;8.822;2022-07-23T06:15:10;4.00;;;3.50;;
8419;SDS011;4247;48.550;8.822;2022-07-23T06:17:37;6.33;;;4.30;;
8419;SDS011;4247;48.550;8.822;2022-07-23T06:20:05;4.23;;;3.90;;
8419;SDS011;4247;48.550;8.822;2022-07-23T06:22:33;4.30;;;3.90;;
8419;SDS011;4247;48.550;8.822;2022-07-23T06:25:06;4.47;;;3.80;;
8419;SDS011;4247;48.550;8.822;2022-07-23T06:27:33;5.60;;;4.60;;
8419;SDS011;4247;48.550;8.822;2022-07-23T06:30:00;4.87;;;4.33;;
8419;SDS011;4247;48.550;8.822;2022-07-23T06:32:28;4.23;;;3.60;;
8419;SDS011;4247;48.550;8.822;2022-07-23T06:34:55;4.10;;;3.73;;
8419;SDS011;4247;48.550;8.822;2022-07-23T06:37:23;5.37;;;4.27;;
8419;SDS011;4247;48.550;8.822;2022-07-23T06:39:50;5.73;;;3.63;;
8419;SDS011;4247;48.550;8.822;2022-07-23T06:42:17;6.20;;;4.40;;
8419;SDS011;4247;48.550;8.822;2022-07-23T06:44:44;5.50;;;4.30;;
8419;SDS011;4247;48.550;8.822;2022-07-23T06:47:10;4.17;;;3.87;;
8419;SDS011;4247;48.550;8.822;2022-07-23T06:49:40;3.63;;;3.27;;
8419;SDS011;4247;48.550;8.822;2022-07-23T06:52:07;3.57;;;3.27;;
8419;SDS011;4247;48.550;8.822;2022-07-23T06:54:34;4.10;;;3.80;;
8419;SDS011;4247;48.550;8.822;2022-07-23T06:57:01;3.50;;;3.30;;
8419;SDS011;4247;48.550;8.822;2022-07-23T06:59:28;3.07;;;2.77;;
8419;SDS011;4247;48.550;8.822;2022-07-23T07:01:55;5.73;;;3.53;;
8419;SDS011;4247;48.550;8.822;2022-07-23T07:04:22;3.70;;;3.33;;
8419;SDS011;4247;48.550;8.822;2022-07-23T07:06:50;5.63;;;3.83;;
8419;SDS011;4247;48.550;8.822;2022-07-23T07:09:17;4.23;;;3.30;;
8419;SDS011;4247;48.550;8.822;2022-07-23T07:11:44;5.50;;;3.67;;
8419;SDS011;4247;48.550;8.822;2022-07-23T07:14:11;4.17;;;3.53;;
8419;SDS011;4247;48.550;8.822;2022-07-23T07:16:38;4.63;;;4.00;;
8419;SDS011;4247;48.550;8.822;2022-07-23T07:19:05;3.50;;;3.20;;
8419;SDS011;4247;48.550;8.822;2022-07-23T07:21:32;4.87;;;2.83;;
8419;SDS011;4247;48.550;8.822;2022-07-23T07:24:00;4.23;;;3.67;;
8419;SDS011;4247;48.550;8.822;2022-07-23T07:26:27;8.17;;;3.30;;
8419;SDS011;4247;48.550;8.822;2022-07-23T07:28:54;6.50;;;4.17;;
8419;SDS011;4247;48.550;8.822;2022-07-23T07:31:21;4.47;;;3.40;;
8419;SDS011;4247;48.550;8.822;2022-07-23T07:33:48;3.80;;;3.50;;
8419;SDS011;4247;48.550;8.822;2022-07-23T07:36:15;5.23;;;3.73;;
8419;SDS011;4247;48.550;8.822;2022-07-23T07:38:42;3.70;;;3.50;;
8419;SDS011;4247;48.550;8.822;2022-07-23T07:41:10;4.03;;;3.73;;
8419;SDS011;4247;48.550;8.822;2022-07-23T07:43:37;3.60;;;2.90;;
8419;SDS011;4247;48.550;8.822;2022-07-23T07:46:04;3.60;;;3.30;;
8419;SDS011;4247;48.550;8.822;2022-07-23T07:48:34;3.30;;;3.00;;
8419;SDS011;4247;48.550;8.822;2022-07-23T07:51:04;4.17;;;3.47;;
8419;SDS011;4247;48.550;8.822;2022-07-23T07:53:31;5.17;;;4.07;;
8419;SDS011;4247;48.550;8.822;2022-07-23T07:55:58;3.13;;;2.93;;
8419;SDS011;4247;48.550;8.822;2022-07-23T07:58:27;4.90;;;3.70;;
8419;SDS011;4247;48.550;8.822;2022-07-23T08:00:53;3.07;;;2.87;;
8419;SDS011;4247;48.550;8.822;2022-07-23T08:03:21;3.57;;;3.27;;
8419;SDS011;4247;48.550;8.822;2022-07-23T08:05:48;5.33;;;3.30;;
8419;SDS011;4247;48.550;8.822;2022-07-23T08:08:14;3.63;;;3.23;;
8419;SDS011;4247;48.550;8.822;2022-07-23T08:10:41;4.33;;;3.30;;
8419;SDS011;4247;48.550;8.822;2022-07-23T08:13:12;2.93;;;2.50;;
8419;SDS011;4247;48.550;8.822;2022-07-23T08:15:42;3.00;;;2.20;;
8419;SDS011;4247;48.550;8.822;2022-07-23T08:18:09;3.37;;;3.00;;
8419;SDS011;4247;48.550;8.822;2022-07-23T08:20:36;2.90;;;2.73;;
8419;SDS011;4247;48.550;8.822;2022-07-23T08:23:04;3.67;;;2.90;;
8419;SDS011;4247;48.550;8.822;2022-07-23T08:25:33;2.70;;;2.50;;
8419;SDS011;4247;48.550;8.822;2022-07-23T08:28:02;2.90;;;2.70;;
8419;SDS011;4247;48.550;8.822;2022-07-23T08:30:30;4.50;;;3.00;;
8419;SDS011;4247;48.550;8.822;2022-07-23T08:33:00;3.70;;;3.33;;
8419;SDS011;4247;48.550;8.822;2022-07-23T08:35:30;4.10;;;3.00;;
8419;SDS011;4247;48.550;8.822;2022-07-23T08:37:58;3.00;;;2.80;;
8419;SDS011;4247;48.550;8.822;2022-07-23T08:40:27;2.80;;;2.40;;
8419;SDS011;4247;48.550;8.822;2022-07-23T08:42:54;3.03;;;2.83;;
8419;SDS011;4247;48.550;8.822;2022-07-23T08:45:23;2.73;;;2.53;;
8419;SDS011;4247;48.550;8.822;2022-07-23T08:47:51;3.43;;;3.07;;
8419;SDS011;4247;48.550;8.822;2022-07-23T08:50:22;3.17;;;2.60;;
8419;SDS011;4247;48.550;8.822;2022-07-23T08:52:50;3.07;;;2.87;;
8419;SDS011;4247;48.550;8.822;2022-07-23T08:55:18;3.50;;;3.20;;
8419;SDS011;4247;48.550;8.822;2022-07-23T08:57:47;3.20;;;3.00;;
8419;SDS011;4247;48.550;8.822;2022-07-23T09:00:16;2.93;;;2.73;;
8419;SDS011;4247;48.550;8.822;2022-07-23T09:02:44;3.23;;;2.93;;
8419;SDS011;4247;48.550;8.822;2022-07-23T09:05:12;3.67;;;3.37;;
8419;SDS011;4247;48.550;8.822;2022-07-23T09:10:50;3.50;;;3.30;;
8419;SDS011;4247;48.550;8.822;2022-07-23T09:13:29;3.53;;;3.23;;
8419;SDS011;4247;48.550;8.822;2022-07-23T09:15:58;3.47;;;3.03;;
8419;SDS011;4247;48.550;8.822;2022-07-23T09:18:29;3.40;;;3.20;;
8419;SDS011;4247;48.550;8.822;2022-07-23T09:21:14;4.13;;;3.73;;
8419;SDS011;4247;48.550;8.822;2022-07-23T09:23:48;4.23;;;3.57;;
8419;SDS011;4247;48.550;8.822;2022-07-23T09:26:22;3.40;;;3.10;;
8419;SDS011;4247;48.550;8.822;2022-07-23T09:28:52;3.40;;;3.00;;
8419;SDS011;4247;48.550;8.822;2022-07-23T09:31:21;3.80;;;3.50;;
8419;SDS011;4247;48.550;8.822;2022-07-23T09:33:48;3.50;;;3.20;;
8419;SDS011;4247;48.550;8.822;2022-07-23T09:36:15;4.10;;;3.80;;
8419;SDS011;4247;48.550;8.822;2022-07-23T09:38:56;3.40;;;3.03;;
8419;SDS011;4247;48.550;8.822;2022-07-23T09:41:23;3.73;;;3.33;;
8419;SDS011;4247;48.550;8.822;2022-07-23T09:43:54;3.53;;;3.23;;
8419;SDS011;4247;48.550;8.822;2022-07-23T09:46:23;4.30;;;3.53;;
8419;SDS011;4247;48.550;8.822;2022-07-23T09:48:53;3.90;;;3.50;;
8419;SDS011;4247;48.550;8.822;2022-07-23T09:51:22;3.60;;;3.37;;
8419;SDS011;4247;48.550;8.822;2022-07-23T09:53:53;5.40;;;3.47;;
8419;SDS011;4247;48.550;8.822;2022-07-23T09:56:21;4.97;;;4.50;;
8419;SDS011;4247;48.550;8.822;2022-07-23T09:58:49;5.13;;;3.43;;
8419;SDS011;4247;48.550;8.822;2022-07-23T10:01:27;3.47;;;3.00;;
8419;SDS011;4247;48.550;8.822;2022-07-23T10:03:54;3.17;;;2.90;;
8419;SDS011;4247;48.550;8.822;2022-07-23T10:06:21;4.10;;;3.30;;
8419;SDS011;4247;48.550;8.822;2022-07-23T10:08:48;3.17;;;2.80;;
8419;SDS011;4247;48.550;8.822;2022-07-23T10:11:17;3.33;;;3.03;;
8419;SDS011;4247;48.550;8.822;2022-07-23T10:13:45;3.67;;;3.37;;
8419;SDS011;4247;48.550;8.822;2022-07-23T10:16:17;3.63;;;3.30;;
8419;SDS011;4247;48.550;8.822;2022-07-23T10:18:45;4.30;;;3.37;;
8419;SDS011;4247;48.550;8.822;2022-07-23T10:21:16;3.20;;;2.90;;
8419;SDS011;4247;48.550;8.822;2022-07-23T10:23:51;4.03;;;2.70;;
8419;SDS011;4247;48.550;8.822;2022-07-23T10:26:29;4.87;;;3.20;;
8419;SDS011;4247;48.550;8.822;2022-07-23T10:29:09;2.83;;;2.57;;
8419;SDS011;4247;48.550;8.822;2022-07-23T10:31:48;3.73;;;3.43;;
8419;SDS011;4247;48.550;8.822;2022-07-23T10:34:24;4.10;;;3.80;;
8419;SDS011;4247;48.550;8.822;2022-07-23T10:36:58;3.43;;;3.23;;
8419;SDS011;4247;48.550;8.822;2022-07-23T10:39:32;3.60;;;3.30;;
8419;SDS011;4247;48.550;8.822;2022-07-23T10:42:10;3.63;;;2.97;;
8419;SDS011;4247;48.550;8.822;2022-07-23T10:44:41;2.73;;;2.43;;
8419;SDS011;4247;48.550;8.822;2022-07-23T10:47:09;3.97;;;3.57;;
8419;SDS011;4247;48.550;8.822;2022-07-23T10:49:51;3.93;;;2.80;;
8419;SDS011;4247;48.550;8.822;2022-07-23T10:52:23;3.20;;;2.90;;
8419;SDS011;4247;48.550;8.822;2022-07-23T10:54:52;3.10;;;2.80;;
8419;SDS011;4247;48.550;8.822;2022-07-23T10:57:21;3.27;;;2.77;;
8419;SDS011;4247;48.550;8.822;2022-07-23T11:00:10;3.83;;;3.33;;
8419;SDS011;4247;48.550;8.822;2022-07-23T11:02:48;3.03;;;2.83;;
8419;SDS011;4247;48.550;8.822;2022-07-23T11:05:17;5.73;;;3.40;;
8419;SDS011;4247;48.550;8.822;2022-07-23T11:10:45;3.37;;;2.63;;
8419;SDS011;4247;48.550;8.822;2022-07-23T11:13:27;3.10;;;2.90;;
8419;SDS011;4247;48.550;8.822;2022-07-23T11:18:54;3.27;;;3.07;;
8419;SDS011;4247;48.550;8.822;2022-07-23T11:21:40;2.80;;;2.60;;
8419;SDS011;4247;48.550;8.822;2022-07-23T11:24:11;3.47;;;3.17;;
8419;SDS011;4247;48.550;8.822;2022-07-23T11:26:43;3.63;;;3.33;;
8419;SDS011;4247;48.550;8.822;2022-07-23T11:35:21;3.60;;;3.30;;
8419;SDS011;4247;48.550;8.822;2022-07-23T11:37:51;4.40;;;2.50;;
8419;SDS011;4247;48.550;8.822;2022-07-23T11:40:24;3.20;;;3.00;;
8419;SDS011;4247;48.550;8.822;2022-07-23T11:42:53;2.90;;;2.70;;
8419;SDS011;4247;48.550;8.822;2022-07-23T11:45:22;2.77;;;2.53;;
8419;SDS011;4247;48.550;8.822;2022-07-23T11:47:53;3.03;;;2.73;;
8419;SDS011;4247;48.550;8.822;2022-07-23T11:50:22;3.90;;;3.60;;
8419;SDS011;4247;48.550;8.822;2022-07-23T11:52:50;2.70;;;2.50;;
8419;SDS011;4247;48.550;8.822;2022-07-23T11:55:17;2.90;;;2.70;;
8419;SDS011;4247;48.550;8.822;2022-07-23T11:57:45;5.40;;;2.80;;
8419;SDS011;4247;48.550;8.822;2022-07-23T12:00:14;3.30;;;3.10;;
8419;SDS011;4247;48.550;8.822;2022-07-23T12:02:43;2.73;;;2.53;;
8419;SDS011;4247;48.550;8.822;2022-07-23T12:05:14;3.40;;;2.77;;
8419;SDS011;4247;48.550;8.822;2022-07-23T12:07:43;3.27;;;2.97;;
8419;SDS011;4247;48.550;8.822;2022-07-23T12:10:16;3.20;;;3.00;;
8419;SDS011;4247;48.550;8.822;2022-07-23T12:12:45;3.20;;;2.90;;
8419;SDS011;4247;48.550;8.822;2022-07-23T12:15:15;2.80;;;2.60;;
8419;SDS011;4247;48.550;8.822;2022-07-23T12:17:43;3.87;;;2.60;;
8419;SDS011;4247;48.550;8.822;2022-07-23T12:20:12;2.97;;;2.77;;
8419;SDS011;4247;48.550;8.822;2022-07-23T12:22:42;3.00;;;2.80;;
8419;SDS011;4247;48.550;8.822;2022-07-23T12:25:11;3.87;;;3.07;;
8419;SDS011;4247;48.550;8.822;2022-07-23T12:27:40;3.47;;;2.93;;
8419;SDS011;4247;48.550;8.822;2022-07-23T12:30:18;3.00;;;2.80;;
8419;SDS011;4247;48.550;8.822;2022-07-23T12:32:47;3.13;;;2.93;;
8419;SDS011;4247;48.550;8.822;2022-07-23T12:35:16;6.10;;;3.47;;
8419;SDS011;4247;48.550;8.822;2022-07-23T12:37:46;3.57;;;3.27;;
8419;SDS011;4247;48.550;8.822;2022-07-23T12:40:28;2.70;;;2.50;;
8419;SDS011;4247;48.550;8.822;2022-07-23T12:42:57;3.97;;;3.63;;
8419;SDS011;4247;48.550;8.822;2022-07-23T12:45:26;4.63;;;3.17;;
8419;SDS011;4247;48.550;8.822;2022-07-23T12:48:00;3.20;;;3.00;;
8419;SDS011;4247;48.550;8.822;2022-07-23T12:50:42;3.50;;;3.20;;
8419;SDS011;4247;48.550;8.822;2022-07-23T12:53:12;2.97;;;2.67;;
8419;SDS011;4247;48.550;8.822;2022-07-23T12:55:41;4.27;;;2.50;;
8419;SDS011;4247;48.550;8.822;2022-07-23T12:58:13;3.17;;;2.83;;
8419;SDS011;4247;48.550;8.822;2022-07-23T13:00:50;2.50;;;2.40;;
8419;SDS011;4247;48.550;8.822;2022-07-23T13:03:44;2.77;;;2.57;;
8419;SDS011;4247;48.550;8.822;2022-07-23T13:06:27;2.77;;;2.53;;
8419;SDS011;4247;48.550;8.822;2022-07-23T13:08:55;3.30;;;3.00;;
8419;SDS011;4247;48.550;8.822;2022-07-23T13:11:22;3.40;;;3.13;;
8419;SDS011;4247;48.550;8.822;2022-07-23T13:13:49;2.63;;;2.50;;
8419;SDS011;4247;48.550;8.822;2022-07-23T13:16:16;5.03;;;2.90;;
8419;SDS011;4247;48.550;8.822;2022-07-23T13:18:43;3.40;;;3.10;;
8419;SDS011;4247;48.550;8.822;2022-07-23T13:21:10;2.77;;;2.57;;
8419;SDS011;4247;48.550;8.822;2022-07-23T13:23:38;2.80;;;2.60;;
8419;SDS011;4247;48.550;8.822;2022-07-23T13:26:05;3.00;;;2.77;;
8419;SDS011;4247;48.550;8.822;2022-07-23T13:28:32;3.17;;;2.83;;
8419;SDS011;4247;48.550;8.822;2022-07-23T13:30:59;4.73;;;2.83;;
8419;SDS011;4247;48.550;8.822;2022-07-23T13:33:26;4.27;;;3.20;;
8419;SDS011;4247;48.550;8.822;2022-07-23T13:35:53;2.83;;;2.43;;
8419;SDS011;4247;48.550;8.822;2022-07-23T13:38:20;3.40;;;2.70;;
8419;SDS011;4247;48.550;8.822;2022-07-23T13:40:49;4.13;;;3.13;;
8419;SDS011;4247;48.550;8.822;2022-07-23T13:43:18;3.57;;;3.27;;
8419;SDS011;4247;48.550;8.822;2022-07-23T13:45:46;2.80;;;2.47;;
8419;SDS011;4247;48.550;8.822;2022-07-23T13:48:13;3.20;;;3.00;;
8419;SDS011;4247;48.550;8.822;2022-07-23T13:50:42;3.50;;;3.00;;
8419;SDS011;4247;48.550;8.822;2022-07-23T13:53:10;3.27;;;3.07;;
8419;SDS011;4247;48.550;8.822;2022-07-23T13:55:41;2.80;;;2.60;;
8419;SDS011;4247;48.550;8.822;2022-07-23T13:58:10;3.13;;;2.83;;
8419;SDS011;4247;48.550;8.822;2022-07-23T14:00:38;3.03;;;2.83;;
8419;SDS011;4247;48.550;8.822;2022-07-23T14:03:06;3.23;;;2.93;;
8419;SDS011;4247;48.550;8.822;2022-07-23T14:05:34;4.97;;;3.33;;
8419;SDS011;4247;48.550;8.822;2022-07-23T14:08:02;3.40;;;3.00;;
8419;SDS011;4247;48.550;8.822;2022-07-23T14:10:29;3.20;;;3.00;;
8419;SDS011;4247;48.550;8.822;2022-07-23T14:12:57;4.20;;;3.27;;
8419;SDS011;4247;48.550;8.822;2022-07-23T14:15:26;3.40;;;2.77;;
8419;SDS011;4247;48.550;8.822;2022-07-23T14:17:53;3.77;;;2.97;;
8419;SDS011;4247;48.550;8.822;2022-07-23T14:20:21;2.93;;;2.70;;
8419;SDS011;4247;48.550;8.822;2022-07-23T14:22:49;4.07;;;2.90;;
8419;SDS011;4247;48.550;8.822;2022-07-23T14:25:16;3.00;;;2.80;;
8419;SDS011;4247;48.550;8.822;2022-07-23T14:27:43;2.90;;;2.60;;
8419;SDS011;4247;48.550;8.822;2022-07-23T14:30:12;3.90;;;3.60;;
8419;SDS011;4247;48.550;8.822;2022-07-23T14:32:41;3.23;;;3.03;;
8419;SDS011;4247;48.550;8.822;2022-07-23T14:35:09;3.73;;;2.97;;
8419;SDS011;4247;48.550;8.822;2022-07-23T14:37:36;3.50;;;3.20;;
8419;SDS011;4247;48.550;8.822;2022-07-23T14:40:05;3.77;;;3.40;;
8419;SDS011;4247;48.550;8.822;2022-07-23T14:42:33;2.97;;;2.73;;
8419;SDS011;4247;48.550;8.822;2022-07-23T14:45:00;3.87;;;2.70;;
8419;SDS011;4247;48.550;8.822;2022-07-23T14:47:26;3.83;;;3.03;;
8419;SDS011;4247;48.550;8.822;2022-07-23T14:49:55;3.73;;;3.40;;
8419;SDS011;4247;48.550;8.822;2022-07-23T14:52:25;3.50;;;3.00;;
8419;SDS011;4247;48.550;8.822;2022-07-23T14:54:52;3.10;;;2.90;;
8419;SDS011;4247;48.550;8.822;2022-07-23T14:57:19;3.47;;;3.07;;
8419;SDS011;4247;48.550;8.822;2022-07-23T14:59:46;6.27;;;2.77;;
8419;SDS011;4247;48.550;8.822;2022-07-23T15:02:12;3.30;;;3.10;;
8419;SDS011;4247;48.550;8.822;2022-07-23T15:04:39;3.13;;;2.90;;
8419;SDS011;4247;48.550;8.822;2022-07-23T15:07:08;2.60;;;2.40;;
8419;SDS011;4247;48.550;8.822;2022-07-23T15:09:34;3.13;;;2.93;;
8419;SDS011;4247;48.550;8.822;2022-07-23T15:12:02;2.93;;;2.57;;
8419;SDS011;4247;48.550;8.822;2022-07-23T15:14:29;3.13;;;2.87;;
8419;SDS011;4247;48.550;8.822;2022-07-23T15:16:56;5.10;;;3.07;;
8419;SDS011;4247;48.550;8.822;2022-07-23T15:19:23;6.40;;;3.50;;
8419;SDS011;4247;48.550;8.822;2022-07-23T15:21:50;3.10;;;2.90;;
8419;SDS011;4247;48.550;8.822;2022-07-23T15:24:18;4.17;;;2.90;;
8419;SDS011;4247;48.550;8.822;2022-07-23T15:26:45;14.82;;;9.32;;
8419;SDS011;4247;48.550;8.822;2022-07-23T15:29:12;12.07;;;6.47;;
8419;SDS011;4247;48.550;8.822;2022-07-23T15:31:39;4.03;;;3.63;;
8419;SDS011;4247;48.550;8.822;2022-07-23T15:34:09;7.97;;;6.40;;
8419;SDS011;4247;48.550;8.822;2022-07-23T15:36:36;6.73;;;5.30;;
8419;SDS011;4247;48.550;8.822;2022-07-23T15:39:03;4.47;;;4.17;;